Newburgh, Indiana
Current Conditions -  °F | °C
As of 6:54 PM on Sunday 23 Nov 2014 (Local Time) from KEVV Reporting Station
Light Rain Light Rain  
Wind Chill: 15°   Ceiling: 1000
Heat Index: 15°   Visibility: 3mi
Dew Point: 13°   Wind: 14mph
Humidity: 87%   Direction: 160°SSE
Pressure: 29.27"   Gusts: 24mph
Location:  37.95°N, 87.4°W
Report Text: KEVV 240054Z 16012G21KT 3SM -RA BR OVC010 15/13 A2927 RMK AO2 SLP910 P0012 T01500128 $
Loading
Personal Weather Stations






























Interactive Weather Map New forecast layout! Learn more

10-Day Weather Forecast

Advertisements
Track Severe Weather on mobile